This is the latest recevied weather packets stored in our database for station/object KO4DYK. If no packets are shown the sender has not sent any weather packets the latest 10 day(s).
| Time | Temp. | Humidity | Pressure | Rain* | Wind** | Luminosity | Snow |
|---|---|---|---|---|---|---|---|
| 1778094244 | 11.67° C | 99% | 1019 hPa | 0 mm | - | 81 W/m² | - |
| 1778093941 | 11.67° C | 99% | 1019 hPa | 0 mm | - | 107 W/m² | - |
| 1778093638 | 11.67° C | 99% | 1018.8 hPa | 0 mm | - | 92 W/m² | - |
| 1778093335 | 11.67° C | 99% | 1018.7 hPa | 0 mm | - | 199 W/m² | - |
| 1778093032 | 11.67° C | 99% | 1018.6 hPa | 0 mm | - | 295 W/m² | - |
| 1778092730 | 11.67° C | 99% | 1018.9 hPa | 0 mm | - | 157 W/m² | - |
| 1778092424 | 11.67° C | 99% | 1018.8 hPa | 0 mm | - | 186 W/m² | - |
| 1778092122 | 11.67° C | 99% | 1018.7 hPa | 0 mm | - | 168 W/m² | - |
| 1778091819 | 12.22° C | 99% | 1018.7 hPa | 0 mm | - | 197 W/m² | - |
| 1778091517 | 11.67° C | 99% | 1018.6 hPa | 0 mm | - | 163 W/m² | - |
| 1778091215 | 11.67° C | 99% | 1018.7 hPa | 0 mm | - | 207 W/m² | - |
| 1778090911 | 11.11° C | 99% | 1018.6 hPa | 0 mm | - | 253 W/m² | - |
| 1778090607 | 11.67° C | 99% | 1018.6 hPa | 0 mm | - | 317 W/m² | - |
| 1778090304 | 11.11° C | 99% | 1019 hPa | 0 mm | - | 192 W/m² | - |
| 1778090001 | 11.11° C | 99% | 1018.8 hPa | 0 mm | - | 199 W/m² | - |
| 1778089698 | 11.67° C | 99% | 1019 hPa | 0 mm | - | 167 W/m² | - |
| 1778089395 | 11.11° C | 99% | 1018.9 hPa | 1.27 mm | - | 214 W/m² | - |
| 1778089093 | 11.11° C | 99% | 1019 hPa | 3.05 mm | - | 256 W/m² | - |
| 1778088789 | 11.11° C | 99% | 1019 hPa | 3.56 mm | - | 157 W/m² | - |
| 1778088486 | 11.11° C | 99% | 1019.1 hPa | 1.78 mm | - | 68 W/m² | - |
| 1778088183 | 11.11° C | 99% | 1019.2 hPa | 0 mm | - | 51 W/m² | - |
| 1778087881 | 11.11° C | 99% | 1019.4 hPa | 0 mm | - | 40 W/m² | - |
| 1778087577 | 11.11° C | 99% | 1019.4 hPa | 0 mm | - | 118 W/m² | - |
| 1778087275 | 11.67° C | 99% | 1019.3 hPa | 0 mm | - | 87 W/m² | - |
| 1778086971 | 11.67° C | 99% | 1018.7 hPa | 0 mm | - | 132 W/m² | - |
* Rain latest hour (hover to see other rain measurements)
** Current wind speed in m/s (hover to see current wind gust speed)